Time;durP1;ratioP1;P1;durP2;ratioP2;P2;SDS_P1;SDS_P2;PMS_P1;PMS_P2;Temp;Humidity;BMP_temperature;BMP_pressure;BME280_temperature;BME280_humidity;BME280_pressure;Samples;Min_cycle;Max_cycle;Signal;HPM_P1;HPM_P2
2022/10/11 00:00:15;;;;;;;28.40;9.73;;;10.30;99.90;;;;;;5116735;28;20171;-76
2022/10/11 00:02:41;;;;;;;26.50;9.73;;;10.30;99.90;;;;;;5116660;28;20305;-76
2022/10/11 00:05:07;;;;;;;22.23;8.67;;;10.20;99.90;;;;;;5116286;28;20171;-75
2022/10/11 00:07:33;;;;;;;27.33;11.67;;;10.20;99.90;;;;;;5116558;28;20673;-77
2022/10/11 00:09:58;;;;;;;26.93;9.57;;;10.20;99.90;;;;;;5116348;28;20234;-77
2022/10/11 00:12:24;;;;;;;22.97;9.33;;;10.10;99.90;;;;;;5116588;28;20199;-76
2022/10/11 00:14:49;;;;;;;32.70;10.73;;;10.20;99.90;;;;;;5116733;28;20210;-75
2022/10/11 00:17:15;;;;;;;32.30;9.07;;;10.10;99.90;;;;;;5116028;28;20519;-77
2022/10/11 00:19:41;;;;;;;20.30;9.20;;;10.10;99.90;;;;;;5116264;28;20192;-76
2022/10/11 00:22:06;;;;;;;27.43;11.07;;;10.10;99.90;;;;;;5116224;28;20228;-76
2022/10/11 00:24:32;;;;;;;26.73;10.50;;;10.10;99.90;;;;;;5115956;28;20246;-77
2022/10/11 00:26:57;;;;;;;26.17;9.20;;;10.10;99.90;;;;;;5116133;28;20209;-77
2022/10/11 00:29:23;;;;;;;25.13;10.10;;;10.20;99.90;;;;;;5115642;28;20250;-75
2022/10/11 00:31:49;;;;;;;20.10;9.13;;;10.10;99.90;;;;;;5115765;28;20185;-76
2022/10/11 00:34:16;;;;;;;15.97;8.47;;;10.10;99.90;;;;;;5115834;28;20220;-79
2022/10/11 00:36:43;;;;;;;23.13;8.90;;;10.00;99.90;;;;;;5128537;28;20171;-78
2022/10/11 00:39:08;;;;;;;26.03;11.13;;;9.90;99.90;;;;;;5119274;28;20167;-78
2022/10/11 00:41:34;;;;;;;29.63;14.67;;;9.90;99.90;;;;;;5115845;28;20280;-77
2022/10/11 00:44:19;;;;;;;23.60;8.17;;;9.90;99.90;;;;;;5114506;28;20171;-77
2022/10/11 00:46:53;;;;;;;19.13;7.63;;;9.90;99.90;;;;;;5115482;28;20210;-77
2022/10/11 00:49:47;;;;;;;18.30;8.17;;;9.80;99.90;;;;;;5115524;28;20667;-77
2022/10/11 00:52:36;;;;;;;26.10;10.73;;;9.80;99.90;;;;;;5115682;28;20210;-77
2022/10/11 00:55:08;;;;;;;20.70;9.37;;;9.90;99.90;;;;;;5115530;28;20187;-77
2022/10/11 00:57:38;;;;;;;32.80;10.23;;;9.90;99.90;;;;;;5115556;28;20634;-78
2022/10/11 01:00:08;;;;;;;27.87;9.07;;;9.80;99.90;;;;;;5115359;28;20300;-79
2022/10/11 01:02:33;;;;;;;27.37;10.70;;;9.80;99.90;;;;;;5115127;28;20160;-79
2022/10/11 01:05:00;;;;;;;22.27;9.87;;;9.80;99.90;;;;;;5114882;28;20524;-79
2022/10/11 01:07:30;;;;;;;23.27;10.30;;;9.70;99.90;;;;;;5115290;28;20182;-78
2022/10/11 01:09:56;;;;;;;24.57;9.03;;;9.80;99.90;;;;;;5115265;28;20206;-79
2022/10/11 01:12:25;;;;;;;23.80;9.00;;;9.70;99.90;;;;;;5114971;28;20534;-79
2022/10/11 01:14:51;;;;;;;22.30;8.90;;;9.60;99.90;;;;;;5115003;28;20264;-79
2022/10/11 01:17:39;;;;;;;18.57;8.97;;;9.50;99.90;;;;;;5114927;28;20642;-79
2022/10/11 01:20:26;;;;;;;24.20;9.80;;;9.60;99.90;;;;;;5113556;28;20173;-79
2022/10/11 01:23:20;;;;;;;26.47;10.43;;;9.70;99.90;;;;;;5114803;28;20167;-78
2022/10/11 01:26:03;;;;;;;26.13;9.27;;;9.60;99.90;;;;;;5114972;28;20174;-79
2022/10/11 01:28:40;;;;;;;21.23;8.80;;;9.50;99.90;;;;;;5113563;28;20548;-79
2022/10/11 01:31:33;;;;;;;21.93;9.57;;;9.60;99.90;;;;;;5114259;28;20298;-79
2022/10/11 01:34:07;;;;;;;18.70;9.40;;;9.60;99.90;;;;;;5114910;28;20170;-80
2022/10/11 01:36:44;;;;;;;20.40;9.07;;;9.50;99.90;;;;;;5114960;28;20167;-79
2022/10/11 01:39:26;;;;;;;17.40;9.40;;;9.50;99.90;;;;;;5114617;28;20178;-79
2022/10/11 01:41:55;;;;;;;28.27;10.90;;;9.50;99.90;;;;;;5114522;28;20171;-79
2022/10/11 01:44:23;;;;;;;16.83;9.13;;;9.50;99.90;;;;;;5114411;28;20164;-81
2022/10/11 01:46:50;;;;;;;19.83;9.93;;;9.50;99.90;;;;;;5114887;28;20182;-80
2022/10/11 01:49:17;;;;;;;24.27;10.07;;;9.50;99.90;;;;;;5114565;28;20178;-80
2022/10/11 01:51:54;;;;;;;20.93;9.40;;;9.40;99.90;;;;;;5113101;28;20186;-77
2022/10/11 01:54:28;;;;;;;22.87;9.37;;;9.40;99.90;;;;;;5113020;28;20194;-78
2022/10/11 01:57:00;;;;;;;24.87;9.70;;;9.40;99.90;;;;;;5113225;28;20171;-80
2022/10/11 01:59:57;;;;;;;21.10;9.73;;;9.30;99.90;;;;;;5112847;28;20178;-78
2022/10/11 02:02:53;;;;;;;30.60;9.07;;;9.30;99.90;;;;;;5114160;28;20167;-79
2022/10/11 02:05:39;;;;;;;26.67;10.20;;;9.30;99.90;;;;;;5114285;28;20171;-78
2022/10/11 02:08:07;;;;;;;24.17;9.67;;;9.30;99.90;;;;;;5114367;28;20650;-79
2022/10/11 02:10:45;;;;;;;29.27;10.30;;;9.30;99.90;;;;;;5114046;28;20211;-81
2022/10/11 02:13:48;;;;;;;22.33;10.23;;;9.30;99.90;;;;;;5112840;28;20174;-79
2022/10/11 02:16:17;;;;;;;22.17;9.80;;;9.20;99.90;;;;;;5113244;28;20191;-80
2022/10/11 02:18:48;;;;;;;24.17;9.43;;;9.20;99.90;;;;;;5112925;28;20251;-78
2022/10/11 02:21:18;;;;;;;26.67;9.90;;;9.20;99.90;;;;;;5114083;28;20690;-80
2022/10/11 02:23:50;;;;;;;25.50;10.33;;;9.20;99.90;;;;;;5113998;28;20619;-80
2022/10/11 02:26:18;;;;;;;17.23;9.80;;;9.20;99.90;;;;;;5112700;28;20183;-80
2022/10/11 02:28:45;;;;;;;22.10;9.37;;;9.20;99.90;;;;;;5113614;28;20173;-80
2022/10/11 02:31:12;;;;;;;25.20;10.50;;;9.30;99.90;;;;;;5112346;28;20274;-78
2022/10/11 02:33:55;;;;;;;27.47;10.50;;;9.20;99.90;;;;;;5114202;28;20167;-80
2022/10/11 02:36:35;;;;;;;29.10;9.93;;;9.20;99.90;;;;;;5114135;28;20163;-79
2022/10/11 02:39:07;;;;;;;23.73;10.20;;;9.20;99.90;;;;;;5113773;28;20182;-79
2022/10/11 02:41:39;;;;;;;24.97;9.77;;;9.20;99.90;;;;;;5113772;28;20661;-79
2022/10/11 02:44:36;;;;;;;26.10;10.90;;;9.10;99.90;;;;;;5113428;28;20163;-78
2022/10/11 02:47:03;;;;;;;22.03;10.07;;;9.10;99.90;;;;;;4994925;28;20186;-77
2022/10/11 02:49:30;;;;;;;20.87;9.90;;;9.00;99.90;;;;;;5011339;28;20177;-80
2022/10/11 02:51:57;;;;;;;22.97;9.90;;;9.00;99.90;;;;;;5011362;28;20190;-78
2022/10/11 02:54:24;;;;;;;25.20;10.70;;;9.10;99.90;;;;;;5011458;28;20173;-80
2022/10/11 02:56:50;;;;;;;20.60;10.57;;;9.10;99.90;;;;;;5010899;28;20195;-79
2022/10/11 02:59:15;;;;;;;24.07;10.03;;;9.00;99.90;;;;;;5011172;28;20227;-80
2022/10/11 03:01:41;;;;;;;25.83;10.23;;;8.90;99.90;;;;;;4994813;28;20174;-80
2022/10/11 03:04:07;;;;;;;33.93;10.57;;;8.90;99.90;;;;;;5011275;28;20539;-79
2022/10/11 03:06:32;;;;;;;21.83;10.80;;;8.90;99.90;;;;;;4994880;28;20203;-79
2022/10/11 03:08:58;;;;;;;26.90;11.53;;;9.00;99.90;;;;;;5011403;28;20527;-79
2022/10/11 03:11:23;;;;;;;24.70;10.00;;;9.00;99.90;;;;;;5011610;28;20276;-79
2022/10/11 03:13:49;;;;;;;20.20;10.53;;;9.00;99.90;;;;;;5011043;28;20175;-79
2022/10/11 03:16:15;;;;;;;23.47;10.87;;;8.90;99.90;;;;;;5011063;28;20190;-79
2022/10/11 03:18:41;;;;;;;25.37;10.97;;;8.90;99.90;;;;;;5010928;28;20179;-79
2022/10/11 03:21:06;;;;;;;23.00;10.80;;;8.90;99.90;;;;;;5010913;28;20270;-79
2022/10/11 03:23:32;;;;;;;25.20;9.57;;;8.90;99.90;;;;;;5060586;28;20266;-79
2022/10/11 03:25:57;;;;;;;27.50;10.83;;;8.80;99.90;;;;;;5112936;28;20202;-80
2022/10/11 03:28:23;;;;;;;25.47;10.60;;;8.90;99.90;;;;;;5116524;28;20203;-80
2022/10/11 03:30:50;;;;;;;27.20;10.27;;;8.80;99.90;;;;;;5116796;28;20230;-79
2022/10/11 03:33:16;;;;;;;24.47;9.63;;;8.80;99.90;;;;;;5117217;28;20160;-80
2022/10/11 03:35:46;;;;;;;23.03;9.93;;;8.90;99.90;;;;;;5117184;28;20199;-80
2022/10/11 03:38:13;;;;;;;24.63;9.70;;;8.90;99.90;;;;;;5117080;28;20564;-79
2022/10/11 03:40:40;;;;;;;25.00;10.87;;;8.90;99.90;;;;;;5116745;28;20618;-78
2022/10/11 03:43:06;;;;;;;29.70;10.33;;;8.90;99.90;;;;;;5117059;28;20218;-80
2022/10/11 03:45:31;;;;;;;25.53;10.60;;;8.90;99.90;;;;;;5117552;28;20515;-80
2022/10/11 03:47:57;;;;;;;21.97;10.17;;;8.90;99.90;;;;;;5115738;28;20224;-79
2022/10/11 03:50:23;;;;;;;27.70;9.93;;;8.90;99.90;;;;;;5116910;28;20276;-80
2022/10/11 03:52:49;;;;;;;23.90;10.30;;;8.80;99.90;;;;;;5116840;28;20166;-80
2022/10/11 03:55:15;;;;;;;23.83;10.40;;;8.70;99.90;;;;;;5116377;28;20163;-79
2022/10/11 03:57:40;;;;;;;13.73;9.20;;;8.70;99.90;;;;;;5116609;28;20254;-79
2022/10/11 04:00:07;;;;;;;23.57;9.73;;;8.70;99.90;;;;;;5115433;28;20171;-79
2022/10/11 04:02:32;;;;;;;24.70;10.13;;;8.70;99.90;;;;;;5116767;28;20163;-80
2022/10/11 04:04:58;;;;;;;29.60;10.40;;;8.70;99.90;;;;;;5115530;28;20175;-80
2022/10/11 04:07:24;;;;;;;20.47;9.67;;;8.70;99.90;;;;;;5116351;28;20561;-79
2022/10/11 04:09:50;;;;;;;25.30;10.20;;;8.60;99.90;;;;;;5114857;28;20202;-80
2022/10/11 04:12:16;;;;;;;20.37;10.77;;;8.60;99.90;;;;;;5116693;28;20226;-79
2022/10/11 04:14:42;;;;;;;23.07;10.30;;;8.60;99.90;;;;;;5116767;28;20556;-80
2022/10/11 04:17:08;;;;;;;29.63;10.13;;;8.60;99.90;;;;;;5116781;28;20174;-80
2022/10/11 04:19:36;;;;;;;28.00;9.63;;;8.60;99.90;;;;;;5115089;28;20167;-80
2022/10/11 04:22:04;;;;;;;30.27;10.53;;;8.60;99.90;;;;;;5098822;28;20235;-80
2022/10/11 04:24:30;;;;;;;24.00;10.63;;;8.70;99.90;;;;;;5116428;28;20365;-81
2022/10/11 04:26:56;;;;;;;27.60;10.63;;;8.60;99.90;;;;;;5116741;28;20222;-80
2022/10/11 04:29:22;;;;;;;27.37;10.17;;;8.60;99.90;;;;;;5116423;28;20167;-81
2022/10/11 04:31:48;;;;;;;19.97;9.13;;;8.60;99.90;;;;;;5117193;28;20699;-80
2022/10/11 04:34:13;;;;;;;19.93;9.10;;;8.60;99.90;;;;;;5116831;28;20187;-80
2022/10/11 04:36:39;;;;;;;19.73;9.20;;;8.50;99.90;;;;;;5117486;28;20526;-80
2022/10/11 04:39:06;;;;;;;26.33;9.70;;;8.40;99.90;;;;;;5116562;28;20669;-80
2022/10/11 04:41:32;;;;;;;23.07;10.03;;;8.50;99.90;;;;;;5118939;28;20189;-80
2022/10/11 04:43:57;;;;;;;22.20;9.47;;;8.60;99.90;;;;;;5120006;28;20618;-79
2022/10/11 04:46:23;;;;;;;20.60;10.20;;;8.60;99.90;;;;;;5119854;28;20167;-81
2022/10/11 04:48:49;;;;;;;22.07;10.03;;;8.60;99.90;;;;;;5120717;28;20631;-81
2022/10/11 04:51:15;;;;;;;23.13;9.90;;;8.60;99.90;;;;;;5119771;28;20237;-80
2022/10/11 04:53:41;;;;;;;19.83;9.60;;;8.60;99.90;;;;;;5118627;28;20218;-81
2022/10/11 04:56:10;;;;;;;22.07;9.60;;;8.60;99.90;;;;;;5120598;28;20767;-79
2022/10/11 04:58:37;;;;;;;26.97;9.57;;;8.50;99.90;;;;;;5118369;28;20171;-79
2022/10/11 05:01:03;;;;;;;22.73;9.90;;;8.50;99.90;;;;;;5118705;28;20194;-81
2022/10/11 05:03:29;;;;;;;23.20;9.37;;;8.60;99.90;;;;;;5122291;28;20199;-82
2022/10/11 05:05:55;;;;;;;25.17;10.07;;;8.50;99.90;;;;;;5121493;28;20243;-79
2022/10/11 05:08:24;;;;;;;30.00;9.83;;;8.50;99.90;;;;;;5120565;28;20198;-81
2022/10/11 05:11:01;;;;;;;23.77;10.70;;;8.50;99.90;;;;;;5121208;28;20238;-79
2022/10/11 05:13:28;;;;;;;23.83;9.83;;;8.50;99.90;;;;;;5120458;28;20564;-82
2022/10/11 05:15:54;;;;;;;20.17;10.23;;;8.50;99.90;;;;;;5119953;28;20171;-80
2022/10/11 05:18:20;;;;;;;21.17;9.83;;;8.50;99.90;;;;;;5123268;28;20235;-81
2022/10/11 05:20:46;;;;;;;21.10;10.10;;;8.50;99.90;;;;;;5120409;28;20258;-78
2022/10/11 05:23:12;;;;;;;23.90;9.90;;;8.50;99.90;;;;;;5121203;28;20175;-80
2022/10/11 05:25:38;;;;;;;28.13;9.90;;;8.50;99.90;;;;;;5120559;28;20172;-80
2022/10/11 05:28:03;;;;;;;21.53;10.37;;;8.40;99.90;;;;;;5121614;28;20182;-81
2022/10/11 05:30:29;;;;;;;24.70;10.00;;;8.40;99.90;;;;;;5120146;28;20245;-80
2022/10/11 05:32:55;;;;;;;24.50;9.83;;;8.50;99.90;;;;;;5120193;28;20176;-80
2022/10/11 05:35:21;;;;;;;22.60;9.23;;;8.50;99.90;;;;;;5118325;28;20255;-81
2022/10/11 05:37:46;;;;;;;24.93;9.47;;;8.50;99.90;;;;;;5118976;28;20166;-82
2022/10/11 05:40:12;;;;;;;23.93;9.93;;;8.40;99.90;;;;;;5122005;28;20526;-80
2022/10/11 05:42:38;;;;;;;21.83;9.83;;;8.40;99.90;;;;;;5126149;28;20171;-81
2022/10/11 05:45:05;;;;;;;24.47;9.37;;;8.50;99.90;;;;;;5123290;28;20322;-80
2022/10/11 05:47:32;;;;;;;25.70;9.27;;;8.50;99.90;;;;;;5123594;28;20182;-82
2022/10/11 05:49:57;;;;;;;24.93;9.90;;;8.50;99.90;;;;;;5124950;28;20207;-81
2022/10/11 05:52:23;;;;;;;26.07;10.10;;;8.50;99.90;;;;;;5123061;28;20170;-81
2022/10/11 05:54:49;;;;;;;22.37;10.33;;;8.60;99.90;;;;;;5120769;28;20259;-82
2022/10/11 05:57:15;;;;;;;28.53;10.60;;;8.60;99.90;;;;;;5121844;28;20179;-77
2022/10/11 05:59:40;;;;;;;21.57;9.63;;;8.60;99.90;;;;;;5113270;28;20163;-78
2022/10/11 06:02:09;;;;;;;25.70;10.07;;;8.60;99.90;;;;;;5112873;28;20665;-78
2022/10/11 06:04:36;;;;;;;25.77;9.93;;;8.60;99.90;;;;;;5112634;28;20273;-79
2022/10/11 06:07:02;;;;;;;22.83;10.43;;;8.70;99.90;;;;;;5112680;28;20289;-77
2022/10/11 06:09:28;;;;;;;28.07;9.33;;;8.70;99.90;;;;;;5112978;28;20198;-78
2022/10/11 06:11:54;;;;;;;23.30;10.03;;;8.70;99.90;;;;;;5113090;28;20177;-77
2022/10/11 06:14:19;;;;;;;28.97;10.33;;;8.80;99.90;;;;;;5113209;28;20163;-77
2022/10/11 06:16:45;;;;;;;23.63;10.00;;;8.90;99.90;;;;;;5113379;28;20171;-79
2022/10/11 06:19:11;;;;;;;26.77;9.50;;;9.00;99.90;;;;;;5113159;28;20816;-78
2022/10/11 06:21:37;;;;;;;20.27;9.90;;;9.10;99.90;;;;;;5113417;28;20174;-80
2022/10/11 06:24:03;;;;;;;26.00;8.80;;;9.20;99.90;;;;;;5111289;28;20484;-78
2022/10/11 06:26:29;;;;;;;25.20;10.57;;;9.30;99.90;;;;;;5112367;28;20175;-78
2022/10/11 06:28:56;;;;;;;29.87;10.33;;;9.50;99.90;;;;;;5111875;28;20195;-81
2022/10/11 06:31:21;;;;;;;32.93;12.07;;;9.60;99.90;;;;;;5124940;28;20227;-80
2022/10/11 06:33:50;;;;;;;36.97;11.90;;;9.70;99.90;;;;;;5120202;28;20190;-82
2022/10/11 06:36:16;;;;;;;22.53;11.03;;;9.80;99.90;;;;;;5112431;28;20579;-82
2022/10/11 06:38:43;;;;;;;19.37;9.53;;;9.90;99.90;;;;;;5112225;27;20174;-85
2022/10/11 06:41:10;;;;;;;23.23;11.10;;;10.00;99.90;;;;;;5109809;28;20210;-81
2022/10/11 06:43:36;;;;;;;28.10;11.37;;;10.20;99.90;;;;;;5127574;28;20589;-84
2022/10/11 06:46:02;;;;;;;23.20;11.23;;;10.20;99.90;;;;;;5129149;27;20175;-82
2022/10/11 06:48:28;;;;;;;38.47;11.60;;;10.40;99.90;;;;;;5118015;28;20528;-82
2022/10/11 06:50:53;;;;;;;28.40;10.37;;;10.70;99.90;;;;;;5114202;28;20252;-81
2022/10/11 06:53:19;;;;;;;32.23;10.33;;;11.20;99.90;;;;;;5132590;28;20186;-83
2022/10/11 06:55:46;;;;;;;23.27;9.23;;;11.70;99.90;;;;;;5127543;28;20190;-82
2022/10/11 06:58:11;;;;;;;21.87;8.77;;;12.40;99.90;;;;;;5112132;28;20171;-82
2022/10/11 07:00:37;;;;;;;24.07;8.80;;;13.60;99.90;;;;;;5112013;28;20512;-82
2022/10/11 07:03:02;;;;;;;27.00;8.10;;;14.70;99.90;;;;;;5117500;28;20216;-81
2022/10/11 07:05:30;;;;;;;16.57;7.97;;;16.20;99.90;;;;;;5130635;28;20578;-82
2022/10/11 07:07:56;;;;;;;18.60;7.50;;;17.10;99.90;;;;;;5125851;28;20174;-81
2022/10/11 07:10:21;;;;;;;16.83;8.00;;;18.10;99.90;;;;;;5126891;28;20203;-82
2022/10/11 07:12:47;;;;;;;24.30;7.90;;;19.30;99.90;;;;;;5120809;28;20247;-80
2022/10/11 07:15:13;;;;;;;21.15;7.50;;;20.00;97.10;;;;;;5116203;28;20531;-84
2022/10/11 07:17:38;;;;;;;19.88;8.00;;;20.80;94.50;;;;;;5114384;28;20175;-77
2022/10/11 07:20:05;;;;;;;19.85;7.75;;;21.90;92.70;;;;;;5107158;28;20201;-78
2022/10/11 07:22:31;;;;;;;14.20;6.85;;;22.80;88.00;;;;;;5100605;27;20255;-80
2022/10/11 07:24:56;;;;;;;24.10;9.23;;;22.90;84.20;;;;;;5113983;28;20251;-77
2022/10/11 07:27:22;;;;;;;17.63;7.18;;;23.70;80.40;;;;;;5116321;28;20171;-80
2022/10/11 07:29:48;;;;;;;19.40;7.03;;;24.70;75.20;;;;;;5116162;28;20235;-82
2022/10/11 07:32:15;;;;;;;19.73;7.38;;;25.40;68.90;;;;;;5115376;28;20167;-77
2022/10/11 07:34:41;;;;;;;21.63;7.00;;;25.70;99.90;;;;;;5115900;28;20282;-76
2022/10/11 07:37:07;;;;;;;18.48;7.28;;;25.50;99.90;;;;;;5115280;28;20199;-78
2022/10/11 07:39:32;;;;;;;13.98;6.50;;;26.00;99.90;;;;;;5116113;28;20171;-79
2022/10/11 07:41:58;;;;;;;18.33;6.78;;;26.50;99.90;;;;;;5115743;28;20210;-78
2022/10/11 07:44:24;;;;;;;18.88;7.18;;;26.20;99.90;;;;;;5116986;28;20195;-79
2022/10/11 07:46:49;;;;;;;20.35;6.85;;;25.40;99.90;;;;;;5115761;28;20202;-78
2022/10/11 07:49:15;;;;;;;18.10;6.65;;;25.70;99.90;;;;;;5115893;28;20171;-83
2022/10/11 07:51:41;;;;;;;15.15;6.57;;;26.30;99.90;;;;;;5109510;28;20207;-81
2022/10/11 07:54:06;;;;;;;24.63;7.72;;;25.40;99.90;;;;;;5095255;28;20507;-82
2022/10/11 07:56:32;;;;;;;19.88;7.85;;;25.50;99.90;;;;;;5076246;28;20226;-79
2022/10/11 07:59:02;;;;;;;19.58;7.00;;;26.10;99.90;;;;;;5094950;28;20195;-79
2022/10/11 08:01:29;;;;;;;20.90;6.80;;;25.50;99.90;;;;;;5094858;28;20160;-79
2022/10/11 08:03:58;;;;;;;26.80;7.97;;;26.00;99.90;;;;;;5076773;28;20174;-79
2022/10/11 08:06:29;;;;;;;17.63;6.97;;;25.90;99.90;;;;;;5094699;28;20179;-82
2022/10/11 08:08:55;;;;;;;22.33;8.88;;;26.00;99.90;;;;;;5095101;28;20163;-82
2022/10/11 08:11:30;;;;;;;23.67;7.10;;;26.30;99.90;;;;;;5095064;28;20204;-81
2022/10/11 08:13:56;;;;;;;18.92;6.60;;;27.30;99.90;;;;;;5094535;28;20160;-83
2022/10/11 08:16:22;;;;;;;17.02;7.20;;;27.60;99.90;;;;;;5094711;28;20172;-79
2022/10/11 08:18:48;;;;;;;20.25;6.45;;;27.00;99.90;;;;;;5079378;28;20645;-79
2022/10/11 08:21:16;;;;;;;19.52;6.10;;;27.10;99.90;;;;;;5091524;28;20182;-80
2022/10/11 08:23:41;;;;;;;18.45;6.47;;;27.10;99.90;;;;;;5093606;28;20237;-78
2022/10/11 08:26:08;;;;;;;18.52;7.57;;;27.40;99.90;;;;;;5094402;28;20175;-79
2022/10/11 08:28:34;;;;;;;20.63;8.05;;;27.70;99.90;;;;;;5094434;28;20635;-82
2022/10/11 08:31:00;;;;;;;21.67;7.63;;;27.70;99.90;;;;;;5104151;27;20222;-79
2022/10/11 08:33:45;;;;;;;20.15;7.68;;;27.60;99.90;;;;;;5137132;27;20314;-81
2022/10/11 08:36:12;;;;;;;19.05;6.32;;;27.20;99.90;;;;;;5096622;27;20638;-79
2022/10/11 08:38:38;;;;;;;22.40;7.10;;;27.00;99.90;;;;;;5135410;27;20201;-79
2022/10/11 08:41:33;;;;;;;23.50;6.30;;;27.60;99.90;;;;;;5135207;27;20198;-81
2022/10/11 08:44:19;;;;;;;24.35;6.57;;;27.20;99.90;;;;;;5113576;28;20232;-86
2022/10/11 08:46:50;;;;;;;15.77;5.50;;;28.30;99.90;;;;;;5097272;28;20175;-86
2022/10/11 08:49:19;;;;;;;16.42;6.63;;;28.00;99.90;;;;;;5124767;27;20179;-81
2022/10/11 08:51:49;;;;;;;22.80;7.38;;;27.30;99.90;;;;;;5134664;27;20298;-81
2022/10/11 08:54:25;;;;;;;19.90;6.80;;;27.30;99.90;;;;;;5134597;27;20174;-81
2022/10/11 08:56:51;;;;;;;19.23;5.95;;;28.10;99.90;;;;;;5133877;27;20174;-82
2022/10/11 08:59:29;;;;;;;13.40;6.00;;;28.40;99.90;;;;;;5134485;27;20649;-81
2022/10/11 09:02:15;;;;;;;18.90;6.97;;;28.50;99.90;;;;;;5116029;27;20170;-79
2022/10/11 09:04:40;;;;;;;13.07;6.22;;;27.00;99.90;;;;;;5097977;28;20187;-80
2022/10/11 09:07:16;;;;;;;14.45;6.63;;;26.70;99.90;;;;;;5117545;27;20212;-80
2022/10/11 09:10:07;;;;;;;15.07;6.47;;;26.90;99.90;;;;;;5134983;27;20650;-83
2022/10/11 09:12:52;;;;;;;15.52;6.00;;;27.30;99.90;;;;;;5119247;27;20225;-82
2022/10/11 09:15:28;;;;;;;12.57;5.82;;;27.80;99.90;;;;;;5116090;27;20167;-82
2022/10/11 09:18:17;;;;;;;17.80;6.07;;;28.50;99.90;;;;;;5134758;27;20163;-83
2022/10/11 09:20:54;;;;;;;17.10;5.78;;;28.30;99.90;;;;;;5115015;28;20262;-83
2022/10/11 09:23:47;;;;;;;14.05;6.22;;;28.00;99.90;;;;;;5124789;27;20167;-85
2022/10/11 09:26:27;;;;;;;9.07;5.07;;;27.90;99.90;;;;;;5115634;27;20178;-87
2022/10/11 09:29:28;;;;;;;12.02;4.78;;;27.50;99.90;;;;;;5133334;27;20177;-81
2022/10/11 09:31:55;;;;;;;12.23;4.50;;;25.70;99.90;;;;;;5134206;27;20193;-84
2022/10/11 09:34:25;;;;;;;9.98;3.90;;;23.40;99.90;;;;;;5133681;27;20194;-87
2022/10/11 09:37:16;;;;;;;11.10;3.75;;;24.00;99.90;;;;;;5115724;27;20208;-83
2022/10/11 09:39:54;;;;;;;8.45;3.63;;;23.00;99.90;;;;;;5133304;27;20209;-84
2022/10/11 09:42:20;;;;;;;11.75;3.65;;;24.20;99.90;;;;;;5134128;27;20166;-83
2022/10/11 09:44:49;;;;;;;8.38;3.45;;;24.80;99.90;;;;;;5134227;27;20170;-82
2022/10/11 09:47:34;;;;;;;4.43;2.50;;;25.90;99.90;;;;;;5134159;27;20182;-84
2022/10/11 09:50:04;;;;;;;7.20;2.70;;;26.10;99.90;;;;;;5134301;27;20197;-86
2022/10/11 09:52:30;;;;;;;4.47;2.13;;;25.90;99.90;;;;;;5134330;27;20565;-86
2022/10/11 09:55:00;;;;;;;9.95;3.95;;;26.60;99.90;;;;;;5134115;27;20158;-81
2022/10/11 09:57:31;;;;;;;5.70;2.05;;;26.70;99.90;;;;;;5133930;27;20205;-85
2022/10/11 10:00:19;;;;;;;8.40;2.50;;;26.20;99.90;;;;;;5133308;27;20239;-79
2022/10/11 10:02:56;;;;;;;3.30;2.30;;;25.60;99.90;;;;;;5115474;27;20231;-83
2022/10/11 10:05:22;;;;;;;3.97;2.15;;;24.20;99.90;;;;;;5132871;27;20170;-80
2022/10/11 10:08:21;;;;;;;7.75;2.22;;;21.50;99.90;;;;;;5132354;27;20181;-84
2022/10/11 10:11:03;;;;;;;6.53;2.40;;;20.70;99.90;;;;;;5099136;28;20281;-82
2022/10/11 10:13:43;;;;;;;5.45;2.28;;;21.20;99.90;;;;;;5124065;27;20195;-82
2022/10/11 10:16:33;;;;;;;9.00;4.07;;;20.80;99.90;;;;;;5115335;27;20560;-81
2022/10/11 10:19:16;;;;;;;7.35;2.75;;;21.70;99.90;;;;;;5135409;27;20196;-82
2022/10/11 10:21:48;;;;;;;8.38;3.80;;;22.50;99.90;;;;;;5133309;27;20170;-81
2022/10/11 10:24:20;;;;;;;7.20;2.22;;;22.50;99.90;;;;;;5133849;27;20193;-81
2022/10/11 10:27:07;;;;;;;7.32;2.70;;;22.70;99.90;;;;;;5112580;28;20691;-83
2022/10/11 10:29:33;;;;;;;5.38;2.60;;;23.50;99.90;;;;;;5096062;28;20638;-79
2022/10/11 10:32:22;;;;;;;7.43;2.50;;;24.10;99.90;;;;;;5132596;27;20228;-88
2022/10/11 10:35:02;;;;;;;7.88;3.00;;;22.60;99.90;;;;;;5132582;27;20228;-82
2022/10/11 10:37:35;;;;;;;8.95;2.90;;;22.90;99.90;;;;;;5131885;27;20177;-82
2022/10/11 10:40:20;;;;;;;10.00;2.70;;;22.10;99.90;;;;;;5097093;28;20179;-83
2022/10/11 10:42:45;;;;;;;8.50;3.30;;;22.20;99.90;;;;;;5114557;28;20250;-87
2022/10/11 10:45:16;;;;;;;6.40;2.80;;;21.40;99.90;;;;;;5114381;28;20199;-92
2022/10/11 10:48:00;;;;;;;6.93;2.72;;;20.80;99.90;;;;;;5116133;28;20250;-90
2022/10/11 10:50:56;;;;;;;9.95;2.60;;;19.90;99.90;;;;;;5112383;28;20240;-87
2022/10/11 10:53:33;;;;;;;6.25;2.30;;;20.60;99.90;;;;;;5110204;28;20179;-89
2022/10/11 10:56:09;;;;;;;7.05;2.10;;;21.10;99.90;;;;;;5113357;28;20193;-86
2022/10/11 10:58:51;;;;;;;6.95;2.28;;;21.60;99.90;;;;;;5113155;28;20190;-84
2022/10/11 11:01:29;;;;;;;9.88;2.90;;;22.40;99.90;;;;;;5113591;28;20167;-87
2022/10/11 11:03:59;;;;;;;5.70;2.00;;;22.50;99.90;;;;;;5115402;28;20150;-88
2022/10/11 11:07:09;;;;;;;7.93;2.92;;;22.30;99.90;;;;;;5113753;28;20174;-87
2022/10/11 11:10:11;;;;;;;8.50;1.80;;;21.50;99.90;;;;;;4995721;28;20265;-88
2022/10/11 11:12:44;;;;;;;6.00;2.78;;;21.40;99.90;;;;;;5012352;28;20174;-88
2022/10/11 11:15:30;;;;;;;5.65;2.45;;;22.00;99.90;;;;;;5011647;28;20240;-90
2022/10/11 11:18:28;;;;;;;5.05;1.85;;;21.10;99.90;;;;;;5012604;28;20265;-89
2022/10/11 11:21:02;;;;;;;5.00;2.00;;;20.70;99.90;;;;;;5010725;28;20190;-88
2022/10/11 11:23:42;;;;;;;7.07;2.10;;;20.40;99.90;;;;;;5027287;28;20178;-88
2022/10/11 11:26:24;;;;;;;7.10;2.47;;;20.10;99.90;;;;;;5010922;28;20179;-88
2022/10/11 11:29:12;;;;;;;5.70;2.17;;;19.30;1.00;;;;;;4994953;28;20198;-85
2022/10/11 11:32:11;;;;;;;6.75;3.50;;;19.20;1.00;;;;;;5010573;28;20226;-87
2022/10/11 11:34:40;;;;;;;4.57;1.90;;;19.90;99.90;;;;;;5010872;28;20260;-86
2022/10/11 11:37:31;;;;;;;7.65;2.85;;;20.00;99.90;;;;;;5011648;28;20174;-88
2022/10/11 11:40:06;;;;;;;15.25;7.03;;;20.10;99.90;;;;;;5044350;28;20171;-85
2022/10/11 11:42:40;;;;;;;11.05;4.28;;;19.70;99.90;;;;;;5112765;28;20162;-83
2022/10/11 11:45:21;;;;;;;10.88;5.57;;;18.70;1.00;;;;;;5112672;28;20257;-82
2022/10/11 11:48:17;;;;;;;8.65;2.65;;;18.60;1.00;;;;;;5113121;28;20242;-82
2022/10/11 11:50:51;;;;;;;5.20;2.05;;;17.70;1.00;;;;;;5111195;28;20244;-83
2022/10/11 11:53:23;;;;;;;6.82;2.30;;;17.60;99.90;;;;;;5116330;28;20180;-83
2022/10/11 11:56:21;;;;;;;7.35;1.90;;;17.60;99.90;;;;;;5116714;28;20164;-84
2022/10/11 11:59:01;;;;;;;10.07;1.98;;;17.90;1.00;;;;;;5115400;28;20687;-81
2022/10/11 12:01:36;;;;;;;6.32;2.20;;;17.50;99.90;;;;;;5116304;28;20163;-82
2022/10/11 12:04:17;;;;;;;10.68;4.80;;;17.30;1.00;;;;;;5095009;27;20190;-82
2022/10/11 12:06:43;;;;;;;7.93;2.25;;;17.60;1.00;;;;;;5118539;27;20171;-82
2022/10/11 12:09:15;;;;;;;7.22;2.20;;;17.50;1.00;;;;;;5135729;27;20656;-81
2022/10/11 12:11:51;;;;;;;13.63;2.88;;;17.40;1.00;;;;;;5135341;27;20297;-83
2022/10/11 12:14:27;;;;;;;10.52;2.80;;;17.60;1.00;;;;;;5135744;27;20257;-81
2022/10/11 12:17:15;;;;;;;9.37;3.93;;;17.70;99.90;;;;;;5133511;27;20182;-82
2022/10/11 12:20:22;;;;;;;6.73;2.50;;;16.90;1.00;;;;;;5116815;27;20215;-80
2022/10/11 12:22:53;;;;;;;6.80;2.20;;;16.70;59.10;;;;;;5051965;28;20165;-79
2022/10/11 12:25:39;;;;;;;7.37;2.20;;;16.50;99.90;;;;;;5051788;28;20299;-80
2022/10/11 12:28:35;;;;;;;4.10;2.23;;;16.60;1.00;;;;;;5052049;28;20177;-79
2022/10/11 12:31:16;;;;;;;7.77;3.13;;;16.50;99.90;;;;;;5022921;28;20226;-79
2022/10/11 12:33:41;;;;;;;8.37;1.87;;;16.60;99.90;;;;;;5005749;28;20218;-80
2022/10/11 12:36:31;;;;;;;5.63;2.10;;;16.50;1.00;;;;;;5012203;28;20214;-77
2022/10/11 12:39:18;;;;;;;5.90;2.13;;;16.50;1.00;;;;;;5011301;28;20681;-79
2022/10/11 12:42:04;;;;;;;5.30;2.03;;;16.60;99.90;;;;;;5012126;28;20225;-77
2022/10/11 12:44:29;;;;;;;9.83;2.03;;;16.70;1.00;;;;;;5012622;28;20218;-77
2022/10/11 12:46:56;;;;;;;7.37;2.37;;;16.80;99.90;;;;;;5011915;28;20183;-77
2022/10/11 12:49:57;;;;;;;6.57;2.30;;;16.70;99.90;;;;;;5011671;28;20203;-78
2022/10/11 12:52:54;;;;;;;5.60;2.37;;;16.40;4.00;;;;;;5009541;28;20194;-75
2022/10/11 12:55:19;;;;;;;5.80;2.20;;;16.30;99.90;;;;;;5094549;28;20207;-77
2022/10/11 12:58:14;;;;;;;10.70;3.03;;;16.50;1.00;;;;;;5093284;28;20583;-74
2022/10/11 13:01:02;;;;;;;9.17;4.00;;;16.50;1.00;;;;;;5065746;28;20226;-78
2022/10/11 13:04:02;;;;;;;10.10;2.53;;;16.70;1.00;;;;;;5074724;28;20180;-78
2022/10/11 13:06:35;;;;;;;7.17;2.50;;;16.90;1.00;;;;;;5093267;28;20191;-78